sensor_id;sensor_type;location;lat;lon;timestamp;pressure;altitude;pressure_sealevel;temperature;humidity
39157;BME280;24889;42.424;25.604;2022-08-07T00:00:48;97745.16;;;24.02;95.19
39157;BME280;24889;42.424;25.604;2022-08-07T00:03:14;97744.53;;;24.06;94.66
39157;BME280;24889;42.424;25.604;2022-08-07T00:05:39;97744.75;;;23.95;95.13
39157;BME280;24889;42.424;25.604;2022-08-07T00:08:05;97734.84;;;23.86;95.83
39157;BME280;24889;42.424;25.604;2022-08-07T00:10:30;97735.84;;;23.90;95.41
39157;BME280;24889;42.424;25.604;2022-08-07T00:12:56;97733.03;;;23.81;95.30
39157;BME280;24889;42.424;25.604;2022-08-07T00:15:22;97741.50;;;23.93;94.15
39157;BME280;24889;42.424;25.604;2022-08-07T00:17:49;97740.91;;;23.96;94.02
39157;BME280;24889;42.424;25.604;2022-08-07T00:20:14;97737.47;;;23.91;93.54
39157;BME280;24889;42.424;25.604;2022-08-07T00:22:40;97731.38;;;23.94;92.55
39157;BME280;24889;42.424;25.604;2022-08-07T00:25:06;97734.03;;;23.99;91.99
39157;BME280;24889;42.424;25.604;2022-08-07T00:27:31;97741.81;;;24.06;89.83
39157;BME280;24889;42.424;25.604;2022-08-07T00:29:56;97729.22;;;24.04;89.31
39157;BME280;24889;42.424;25.604;2022-08-07T00:32:22;97727.75;;;23.98;90.06
39157;BME280;24889;42.424;25.604;2022-08-07T00:34:47;97731.69;;;24.06;89.07
39157;BME280;24889;42.424;25.604;2022-08-07T00:37:14;97730.22;;;24.09;88.25
39157;BME280;24889;42.424;25.604;2022-08-07T00:39:39;97731.94;;;24.18;87.13
39157;BME280;24889;42.424;25.604;2022-08-07T00:42:04;97729.78;;;24.29;85.61
39157;BME280;24889;42.424;25.604;2022-08-07T00:44:30;97725.28;;;24.33;84.62
39157;BME280;24889;42.424;25.604;2022-08-07T00:46:55;97728.63;;;24.30;85.12
39157;BME280;24889;42.424;25.604;2022-08-07T00:49:20;97718.09;;;24.37;84.23
39157;BME280;24889;42.424;25.604;2022-08-07T00:51:46;97718.22;;;24.32;84.40
39157;BME280;24889;42.424;25.604;2022-08-07T00:54:11;97717.91;;;24.34;83.57
39157;BME280;24889;42.424;25.604;2022-08-07T00:56:39;97718.31;;;24.41;82.65
39157;BME280;24889;42.424;25.604;2022-08-07T00:59:04;97713.22;;;24.34;82.93
39157;BME280;24889;42.424;25.604;2022-08-07T01:01:31;97715.88;;;24.39;82.45
39157;BME280;24889;42.424;25.604;2022-08-07T01:03:56;97711.50;;;24.38;82.43
39157;BME280;24889;42.424;25.604;2022-08-07T01:06:21;97716.47;;;24.36;82.28
39157;BME280;24889;42.424;25.604;2022-08-07T01:08:46;97721.94;;;24.36;82.24
39157;BME280;24889;42.424;25.604;2022-08-07T01:11:12;97713.22;;;24.34;81.80
39157;BME280;24889;42.424;25.604;2022-08-07T01:13:38;97715.34;;;24.37;81.60
39157;BME280;24889;42.424;25.604;2022-08-07T01:16:04;97716.38;;;24.41;81.32
39157;BME280;24889;42.424;25.604;2022-08-07T01:18:30;97716.97;;;24.38;81.67
39157;BME280;24889;42.424;25.604;2022-08-07T01:21:11;97723.38;;;24.34;82.03
39157;BME280;24889;42.424;25.604;2022-08-07T01:23:41;97717.50;;;24.40;81.14
39157;BME280;24889;42.424;25.604;2022-08-07T01:26:10;97719.44;;;24.40;80.38
39157;BME280;24889;42.424;25.604;2022-08-07T01:28:37;97718.88;;;24.38;80.36
39157;BME280;24889;42.424;25.604;2022-08-07T01:31:03;97714.84;;;24.35;80.62
39157;BME280;24889;42.424;25.604;2022-08-07T01:33:28;97711.50;;;24.38;79.91
39157;BME280;24889;42.424;25.604;2022-08-07T01:35:55;97711.72;;;24.28;80.33
39157;BME280;24889;42.424;25.604;2022-08-07T01:38:21;97708.75;;;24.38;79.47
39157;BME280;24889;42.424;25.604;2022-08-07T01:40:46;97711.72;;;24.28;79.43
39157;BME280;24889;42.424;25.604;2022-08-07T01:43:13;97709.19;;;24.32;79.50
39157;BME280;24889;42.424;25.604;2022-08-07T01:45:38;97719.31;;;24.31;78.74
39157;BME280;24889;42.424;25.604;2022-08-07T01:48:04;97713.22;;;24.34;78.30
39157;BME280;24889;42.424;25.604;2022-08-07T01:50:30;97713.75;;;24.36;77.82
39157;BME280;24889;42.424;25.604;2022-08-07T01:52:58;97711.81;;;24.37;78.05
39157;BME280;24889;42.424;25.604;2022-08-07T01:55:24;97711.91;;;24.32;77.64
39157;BME280;24889;42.424;25.604;2022-08-07T01:57:51;97716.69;;;24.40;76.55
39157;BME280;24889;42.424;25.604;2022-08-07T02:00:17;97715.25;;;24.42;76.17
39157;BME280;24889;42.424;25.604;2022-08-07T02:02:46;97716.06;;;24.43;76.00
39157;BME280;24889;42.424;25.604;2022-08-07T02:05:22;97718.88;;;24.51;75.37
39157;BME280;24889;42.424;25.604;2022-08-07T02:07:49;97713.75;;;24.59;74.41
39157;BME280;24889;42.424;25.604;2022-08-07T02:10:16;97710.97;;;24.50;74.55
39157;BME280;24889;42.424;25.604;2022-08-07T02:12:42;97709.66;;;24.47;74.35
39157;BME280;24889;42.424;25.604;2022-08-07T02:15:09;97707.97;;;24.60;73.74
39157;BME280;24889;42.424;25.604;2022-08-07T02:17:36;97705.06;;;24.57;73.52
39157;BME280;24889;42.424;25.604;2022-08-07T02:20:02;97710.09;;;24.63;72.31
39157;BME280;24889;42.424;25.604;2022-08-07T02:22:28;97705.78;;;24.71;71.96
39157;BME280;24889;42.424;25.604;2022-08-07T02:24:54;97706.25;;;24.73;71.94
39157;BME280;24889;42.424;25.604;2022-08-07T02:27:21;97702.91;;;24.76;71.38
39157;BME280;24889;42.424;25.604;2022-08-07T02:29:47;97711.88;;;24.68;71.49
39157;BME280;24889;42.424;25.604;2022-08-07T02:32:13;97710.81;;;24.78;70.97
39157;BME280;24889;42.424;25.604;2022-08-07T02:34:40;97709.41;;;24.89;70.46
39157;BME280;24889;42.424;25.604;2022-08-07T02:37:06;97705.88;;;24.88;70.07
39157;BME280;24889;42.424;25.604;2022-08-07T02:39:33;97704.44;;;24.91;70.02
39157;BME280;24889;42.424;25.604;2022-08-07T02:41:59;97705.75;;;24.93;69.83
39157;BME280;24889;42.424;25.604;2022-08-07T02:44:26;97708.66;;;24.97;69.56
39157;BME280;24889;42.424;25.604;2022-08-07T02:46:51;97710.59;;;24.96;69.49
39157;BME280;24889;42.424;25.604;2022-08-07T02:49:18;97706.41;;;24.99;69.24
39157;BME280;24889;42.424;25.604;2022-08-07T02:51:44;97704.63;;;24.94;69.44
39157;BME280;24889;42.424;25.604;2022-08-07T02:54:10;97701.56;;;24.96;69.13
39157;BME280;24889;42.424;25.604;2022-08-07T02:56:37;97697.53;;;24.93;69.28
39157;BME280;24889;42.424;25.604;2022-08-07T02:59:05;97707.03;;;24.96;69.51
39157;BME280;24889;42.424;25.604;2022-08-07T03:01:33;97707.50;;;24.89;69.90
39157;BME280;24889;42.424;25.604;2022-08-07T03:03:59;97711.50;;;24.92;69.85
39157;BME280;24889;42.424;25.604;2022-08-07T03:06:25;97706.19;;;24.87;70.33
39157;BME280;24889;42.424;25.604;2022-08-07T03:08:51;97705.75;;;24.93;70.08
39157;BME280;24889;42.424;25.604;2022-08-07T03:11:16;97709.75;;;24.96;69.69
39157;BME280;24889;42.424;25.604;2022-08-07T03:13:42;97705.41;;;24.95;69.99
39157;BME280;24889;42.424;25.604;2022-08-07T03:16:08;97724.41;;;24.91;70.01
39157;BME280;24889;42.424;25.604;2022-08-07T03:18:33;97719.50;;;24.80;70.76
39157;BME280;24889;42.424;25.604;2022-08-07T03:20:59;97722.94;;;24.85;70.50
39157;BME280;24889;42.424;25.604;2022-08-07T03:23:24;97722.25;;;24.80;70.68
39157;BME280;24889;42.424;25.604;2022-08-07T03:25:51;97727.38;;;24.81;70.77
39157;BME280;24889;42.424;25.604;2022-08-07T03:28:17;97738.41;;;24.90;70.38
39157;BME280;24889;42.424;25.604;2022-08-07T03:30:44;97731.66;;;24.96;69.62
39157;BME280;24889;42.424;25.604;2022-08-07T03:33:10;97736.84;;;24.97;69.59
39157;BME280;24889;42.424;25.604;2022-08-07T03:35:36;97741.13;;;24.90;70.40
39157;BME280;24889;42.424;25.604;2022-08-07T03:38:03;97746.50;;;25.04;69.70
39157;BME280;24889;42.424;25.604;2022-08-07T03:40:31;97743.53;;;25.14;69.28
39157;BME280;24889;42.424;25.604;2022-08-07T03:42:56;97751.47;;;25.24;68.90
39157;BME280;24889;42.424;25.604;2022-08-07T03:45:22;97746.72;;;25.38;68.12
39157;BME280;24889;42.424;25.604;2022-08-07T03:47:49;97757.53;;;25.52;67.36
39157;BME280;24889;42.424;25.604;2022-08-07T03:50:15;97744.84;;;25.65;66.64
39157;BME280;24889;42.424;25.604;2022-08-07T03:52:41;97749.09;;;25.80;66.17
39157;BME280;24889;42.424;25.604;2022-08-07T03:55:08;97756.53;;;25.96;65.21
39157;BME280;24889;42.424;25.604;2022-08-07T03:57:34;97760.13;;;26.14;64.94
39157;BME280;24889;42.424;25.604;2022-08-07T04:00:00;97767.84;;;26.21;64.25
39157;BME280;24889;42.424;25.604;2022-08-07T04:02:25;97763.31;;;26.25;64.14
39157;BME280;24889;42.424;25.604;2022-08-07T04:04:51;97763.81;;;26.36;63.85
39157;BME280;24889;42.424;25.604;2022-08-07T04:07:20;97773.50;;;26.59;63.26
39157;BME280;24889;42.424;25.604;2022-08-07T04:09:45;97772.38;;;26.86;62.61
39157;BME280;24889;42.424;25.604;2022-08-07T04:12:11;97778.94;;;27.11;61.80
39157;BME280;24889;42.424;25.604;2022-08-07T04:14:38;97773.72;;;27.27;60.61
39157;BME280;24889;42.424;25.604;2022-08-07T04:17:03;97773.09;;;27.60;59.72
39157;BME280;24889;42.424;25.604;2022-08-07T04:19:28;97775.66;;;27.65;59.80
39157;BME280;24889;42.424;25.604;2022-08-07T04:21:54;97778.84;;;27.84;59.49
39157;BME280;24889;42.424;25.604;2022-08-07T04:24:20;97774.94;;;27.85;58.36
39157;BME280;24889;42.424;25.604;2022-08-07T04:26:45;97780.31;;;28.03;57.99
39157;BME280;24889;42.424;25.604;2022-08-07T04:29:10;97787.78;;;28.23;57.40
39157;BME280;24889;42.424;25.604;2022-08-07T04:31:37;97784.16;;;28.31;56.75
39157;BME280;24889;42.424;25.604;2022-08-07T04:34:03;97770.59;;;28.05;57.28
39157;BME280;24889;42.424;25.604;2022-08-07T04:36:28;97784.22;;;28.02;57.50
39157;BME280;24889;42.424;25.604;2022-08-07T04:38:53;97774.50;;;28.25;56.91
39157;BME280;24889;42.424;25.604;2022-08-07T04:41:19;97773.09;;;28.19;56.84
39157;BME280;24889;42.424;25.604;2022-08-07T04:43:44;97779.25;;;28.16;56.87
39157;BME280;24889;42.424;25.604;2022-08-07T04:46:17;97777.25;;;28.25;55.78
39157;BME280;24889;42.424;25.604;2022-08-07T04:51:23;97787.19;;;28.59;54.51
39157;BME280;24889;42.424;25.604;2022-08-07T04:53:53;97789.44;;;28.78;54.63
39157;BME280;24889;42.424;25.604;2022-08-07T04:56:23;97788.66;;;28.78;54.36
39157;BME280;24889;42.424;25.604;2022-08-07T05:01:36;97804.59;;;28.51;54.48
39157;BME280;24889;42.424;25.604;2022-08-07T05:04:11;97799.25;;;28.88;53.37
39157;BME280;24889;42.424;25.604;2022-08-07T05:06:41;97804.16;;;29.16;53.07
39157;BME280;24889;42.424;25.604;2022-08-07T05:11:53;97793.75;;;28.88;53.15
39157;BME280;24889;42.424;25.604;2022-08-07T05:14:19;97804.59;;;29.05;52.57
39157;BME280;24889;42.424;25.604;2022-08-07T05:16:47;97807.38;;;28.64;53.26
39157;BME280;24889;42.424;25.604;2022-08-07T05:19:18;97805.97;;;28.99;52.89
39157;BME280;24889;42.424;25.604;2022-08-07T05:21:46;97812.75;;;29.02;51.92
39157;BME280;24889;42.424;25.604;2022-08-07T05:24:13;97816.75;;;29.04;51.57
39157;BME280;24889;42.424;25.604;2022-08-07T05:26:41;97819.63;;;29.08;52.03
39157;BME280;24889;42.424;25.604;2022-08-07T05:29:07;97821.94;;;29.06;51.16
39157;BME280;24889;42.424;25.604;2022-08-07T05:31:35;97822.69;;;29.40;51.12
39157;BME280;24889;42.424;25.604;2022-08-07T05:34:02;97836.00;;;29.71;49.90
39157;BME280;24889;42.424;25.604;2022-08-07T05:36:29;97826.03;;;29.45;50.87
39157;BME280;24889;42.424;25.604;2022-08-07T05:38:57;97827.47;;;29.06;50.98
39157;BME280;24889;42.424;25.604;2022-08-07T05:41:23;97824.56;;;28.81;51.06
39157;BME280;24889;42.424;25.604;2022-08-07T05:43:49;97829.94;;;28.99;51.31
39157;BME280;24889;42.424;25.604;2022-08-07T05:46:16;97829.44;;;29.18;50.75
39157;BME280;24889;42.424;25.604;2022-08-07T05:48:43;97837.91;;;29.58;49.61
39157;BME280;24889;42.424;25.604;2022-08-07T05:51:09;97831.97;;;29.23;49.67
39157;BME280;24889;42.424;25.604;2022-08-07T05:53:34;97831.16;;;29.22;50.46
39157;BME280;24889;42.424;25.604;2022-08-07T05:56:00;97832.63;;;29.07;50.42
39157;BME280;24889;42.424;25.604;2022-08-07T05:58:26;97835.75;;;29.18;49.72
39157;BME280;24889;42.424;25.604;2022-08-07T06:00:52;97835.13;;;29.46;49.34
39157;BME280;24889;42.424;25.604;2022-08-07T06:03:20;97840.81;;;29.98;48.67
39157;BME280;24889;42.424;25.604;2022-08-07T06:05:47;97839.16;;;30.46;46.11
39157;BME280;24889;42.424;25.604;2022-08-07T06:08:13;97836.47;;;30.62;45.54
39157;BME280;24889;42.424;25.604;2022-08-07T06:10:39;97839.78;;;30.27;46.40
39157;BME280;24889;42.424;25.604;2022-08-07T06:13:05;97836.31;;;30.30;45.83
39157;BME280;24889;42.424;25.604;2022-08-07T06:15:30;97840.41;;;30.49;45.93
39157;BME280;24889;42.424;25.604;2022-08-07T06:17:59;97847.09;;;30.48;46.46
39157;BME280;24889;42.424;25.604;2022-08-07T06:20:24;97833.50;;;30.95;42.96
39157;BME280;24889;42.424;25.604;2022-08-07T06:22:51;97849.53;;;30.90;43.61
39157;BME280;24889;42.424;25.604;2022-08-07T06:25:17;97845.03;;;30.45;43.14
39157;BME280;24889;42.424;25.604;2022-08-07T06:27:42;97850.13;;;30.18;44.84
39157;BME280;24889;42.424;25.604;2022-08-07T06:30:08;97849.09;;;29.98;44.83
39157;BME280;24889;42.424;25.604;2022-08-07T06:32:33;97846.09;;;30.16;44.75
39157;BME280;24889;42.424;25.604;2022-08-07T06:34:59;97839.91;;;29.94;45.32
39157;BME280;24889;42.424;25.604;2022-08-07T06:37:24;97837.03;;;29.91;45.37
39157;BME280;24889;42.424;25.604;2022-08-07T06:39:49;97838.25;;;30.30;45.10
39157;BME280;24889;42.424;25.604;2022-08-07T06:42:25;97842.22;;;30.17;44.71
39157;BME280;24889;42.424;25.604;2022-08-07T06:44:51;97842.22;;;29.34;46.56
39157;BME280;24889;42.424;25.604;2022-08-07T06:47:17;97842.44;;;29.29;47.73
39157;BME280;24889;42.424;25.604;2022-08-07T06:49:42;97841.88;;;29.36;47.35
39157;BME280;24889;42.424;25.604;2022-08-07T06:52:09;97844.09;;;29.09;48.11
39157;BME280;24889;42.424;25.604;2022-08-07T06:54:36;97850.88;;;29.12;47.92
39157;BME280;24889;42.424;25.604;2022-08-07T06:57:02;97851.00;;;29.16;47.85
39157;BME280;24889;42.424;25.604;2022-08-07T06:59:32;97839.41;;;29.10;47.69
39157;BME280;24889;42.424;25.604;2022-08-07T07:01:58;97834.31;;;29.45;47.42
39157;BME280;24889;42.424;25.604;2022-08-07T07:04:24;97854.09;;;29.47;47.02
39157;BME280;24889;42.424;25.604;2022-08-07T07:06:50;97847.66;;;29.55;47.41
39157;BME280;24889;42.424;25.604;2022-08-07T07:09:22;97854.63;;;29.41;47.71
39157;BME280;24889;42.424;25.604;2022-08-07T07:11:53;97856.34;;;29.33;46.97
39157;BME280;24889;42.424;25.604;2022-08-07T07:14:22;97857.56;;;29.69;46.30
39157;BME280;24889;42.424;25.604;2022-08-07T07:16:49;97857.25;;;30.32;43.84
39157;BME280;24889;42.424;25.604;2022-08-07T07:19:15;97848.25;;;31.15;41.46
39157;BME280;24889;42.424;25.604;2022-08-07T07:21:42;97852.97;;;31.74;39.67
39157;BME280;24889;42.424;25.604;2022-08-07T07:24:08;97851.13;;;32.10;38.82
39157;BME280;24889;42.424;25.604;2022-08-07T07:26:35;97856.19;;;32.40;37.25
39157;BME280;24889;42.424;25.604;2022-08-07T07:29:03;97854.00;;;32.68;35.83
39157;BME280;24889;42.424;25.604;2022-08-07T07:31:33;97866.09;;;32.41;35.88
39157;BME280;24889;42.424;25.604;2022-08-07T07:34:03;97860.75;;;32.01;36.80
39157;BME280;24889;42.424;25.604;2022-08-07T07:36:29;97858.56;;;31.90;37.33
39157;BME280;24889;42.424;25.604;2022-08-07T07:38:57;97858.97;;;31.77;37.20
39157;BME280;24889;42.424;25.604;2022-08-07T07:41:24;97857.16;;;32.16;36.40
39157;BME280;24889;42.424;25.604;2022-08-07T07:43:51;97861.28;;;32.22;36.15
39157;BME280;24889;42.424;25.604;2022-08-07T07:46:18;97857.94;;;32.32;36.70
39157;BME280;24889;42.424;25.604;2022-08-07T07:48:47;97852.63;;;32.59;36.94
39157;BME280;24889;42.424;25.604;2022-08-07T07:51:12;97851.72;;;33.09;35.28
39157;BME280;24889;42.424;25.604;2022-08-07T07:53:39;97859.88;;;33.87;34.30
39157;BME280;24889;42.424;25.604;2022-08-07T07:56:05;97859.81;;;33.41;34.42
39157;BME280;24889;42.424;25.604;2022-08-07T07:58:33;97866.72;;;33.47;33.92
39157;BME280;24889;42.424;25.604;2022-08-07T08:00:59;97861.09;;;33.24;34.56
39157;BME280;24889;42.424;25.604;2022-08-07T08:03:25;97864.81;;;33.32;34.89
39157;BME280;24889;42.424;25.604;2022-08-07T08:05:52;97861.28;;;33.54;34.54
39157;BME280;24889;42.424;25.604;2022-08-07T08:08:18;97863.19;;;33.96;33.21
39157;BME280;24889;42.424;25.604;2022-08-07T08:10:43;97861.88;;;33.90;33.43
39157;BME280;24889;42.424;25.604;2022-08-07T08:13:09;97850.22;;;33.35;34.13
39157;BME280;24889;42.424;25.604;2022-08-07T08:15:36;97856.88;;;33.30;34.77
39157;BME280;24889;42.424;25.604;2022-08-07T08:18:02;97851.25;;;33.46;33.75
39157;BME280;24889;42.424;25.604;2022-08-07T08:20:31;97848.16;;;33.51;33.53
39157;BME280;24889;42.424;25.604;2022-08-07T08:22:57;97852.56;;;33.98;33.20
39157;BME280;24889;42.424;25.604;2022-08-07T08:25:42;97851.63;;;34.17;32.54
39157;BME280;24889;42.424;25.604;2022-08-07T08:28:27;97856.41;;;33.48;32.23
39157;BME280;24889;42.424;25.604;2022-08-07T08:30:58;97841.75;;;33.70;32.10
39157;BME280;24889;42.424;25.604;2022-08-07T08:33:24;97843.22;;;33.22;32.44
39157;BME280;24889;42.424;25.604;2022-08-07T08:35:51;97846.47;;;33.04;32.77
39157;BME280;24889;42.424;25.604;2022-08-07T08:38:21;97846.94;;;33.29;32.60
39157;BME280;24889;42.424;25.604;2022-08-07T08:40:49;97848.72;;;33.83;31.92
39157;BME280;24889;42.424;25.604;2022-08-07T08:43:32;97835.13;;;34.28;31.51
39157;BME280;24889;42.424;25.604;2022-08-07T08:46:11;97842.72;;;34.31;31.46
39157;BME280;24889;42.424;25.604;2022-08-07T08:48:39;97831.88;;;34.22;31.55
39157;BME280;24889;42.424;25.604;2022-08-07T08:54:45;97838.94;;;34.16;31.37
39157;BME280;24889;42.424;25.604;2022-08-07T08:56:50;97839.44;;;33.10;32.76
39157;BME280;24889;42.424;25.604;2022-08-07T08:59:33;97825.22;;;33.54;32.13
39157;BME280;24889;42.424;25.604;2022-08-07T09:04:43;97845.16;;;33.86;32.03
39157;BME280;24889;42.424;25.604;2022-08-07T09:07:18;97831.47;;;33.97;31.50
39157;BME280;24889;42.424;25.604;2022-08-07T09:17:34;97835.09;;;32.19;33.89
39157;BME280;24889;42.424;25.604;2022-08-07T09:27:34;97833.75;;;32.64;33.46
39157;BME280;24889;42.424;25.604;2022-08-07T09:30:10;97818.44;;;33.09;32.43
39157;BME280;24889;42.424;25.604;2022-08-07T09:40:25;97815.19;;;32.30;32.59
39157;BME280;24889;42.424;25.604;2022-08-07T09:45:38;97814.84;;;32.15;34.32
39157;BME280;24889;42.424;25.604;2022-08-07T09:48:11;97810.88;;;31.97;32.91
39157;BME280;24889;42.424;25.604;2022-08-07T09:53:25;97824.72;;;32.67;32.96
39157;BME280;24889;42.424;25.604;2022-08-07T09:56:01;97810.34;;;33.20;31.63
39157;BME280;24889;42.424;25.604;2022-08-07T09:58:43;97797.19;;;33.59;31.21
39157;BME280;24889;42.424;25.604;2022-08-07T10:03:59;97794.69;;;33.77;30.66
39157;BME280;24889;42.424;25.604;2022-08-07T10:09:19;97812.03;;;32.31;32.83
39157;BME280;24889;42.424;25.604;2022-08-07T10:23:04;97783.16;;;33.06;33.42
39157;BME280;24889;42.424;25.604;2022-08-07T10:25:56;97782.28;;;33.02;32.72
39157;BME280;24889;42.424;25.604;2022-08-07T10:38:38;97791.34;;;33.64;30.77
39157;BME280;24889;42.424;25.604;2022-08-07T10:43:33;97773.00;;;33.60;30.34
39157;BME280;24889;42.424;25.604;2022-08-07T10:46:00;97779.69;;;33.55;32.29
39157;BME280;24889;42.424;25.604;2022-08-07T10:59:23;97786.97;;;31.89;35.46
39157;BME280;24889;42.424;25.604;2022-08-07T11:01:53;97769.03;;;31.83;35.90
39157;BME280;24889;42.424;25.604;2022-08-07T11:07:21;97760.97;;;33.06;34.65
39157;BME280;24889;42.424;25.604;2022-08-07T11:09:51;97778.28;;;33.00;33.45
39157;BME280;24889;42.424;25.604;2022-08-07T11:12:20;97780.34;;;32.44;33.54
39157;BME280;24889;42.424;25.604;2022-08-07T11:14:53;97784.41;;;32.15;33.71
39157;BME280;24889;42.424;25.604;2022-08-07T11:17:39;97774.38;;;32.62;33.27
39157;BME280;24889;42.424;25.604;2022-08-07T11:20:06;97765.75;;;33.29;32.63
39157;BME280;24889;42.424;25.604;2022-08-07T11:25:18;97771.41;;;33.13;32.00
39157;BME280;24889;42.424;25.604;2022-08-07T11:27:53;97780.78;;;33.28;32.75
39157;BME280;24889;42.424;25.604;2022-08-07T11:30:23;97766.56;;;33.52;31.98
39157;BME280;24889;42.424;25.604;2022-08-07T11:32:55;97769.66;;;33.47;32.15
39157;BME280;24889;42.424;25.604;2022-08-07T11:35:23;97767.69;;;33.05;34.01
39157;BME280;24889;42.424;25.604;2022-08-07T11:43:16;97779.13;;;31.43;38.23
39157;BME280;24889;42.424;25.604;2022-08-07T11:46:04;97790.34;;;31.66;38.33
39157;BME280;24889;42.424;25.604;2022-08-07T11:51:55;97808.22;;;31.37;39.67
39157;BME280;24889;42.424;25.604;2022-08-07T11:54:34;97811.47;;;31.27;39.89
39157;BME280;24889;42.424;25.604;2022-08-07T12:02:29;97795.00;;;31.31;41.09
39157;BME280;24889;42.424;25.604;2022-08-07T12:07:26;97780.22;;;31.39;41.05
39157;BME280;24889;42.424;25.604;2022-08-07T12:12:25;97773.41;;;32.19;39.13
39157;BME280;24889;42.424;25.604;2022-08-07T12:15:02;97771.19;;;32.25;37.81
39157;BME280;24889;42.424;25.604;2022-08-07T12:17:31;97770.31;;;32.20;38.46
39157;BME280;24889;42.424;25.604;2022-08-07T12:19:58;97779.84;;;31.56;40.19
39157;BME280;24889;42.424;25.604;2022-08-07T12:22:27;97788.88;;;31.37;40.42
39157;BME280;24889;42.424;25.604;2022-08-07T12:25:02;97794.66;;;30.88;40.66
39157;BME280;24889;42.424;25.604;2022-08-07T12:27:49;97793.22;;;30.94;40.23
39157;BME280;24889;42.424;25.604;2022-08-07T12:30:17;97789.03;;;30.85;41.22
39157;BME280;24889;42.424;25.604;2022-08-07T12:32:49;97784.06;;;31.06;41.35
39157;BME280;24889;42.424;25.604;2022-08-07T12:35:16;97787.66;;;31.22;39.14
39157;BME280;24889;42.424;25.604;2022-08-07T12:37:45;97772.69;;;31.55;39.39
39157;BME280;24889;42.424;25.604;2022-08-07T12:40:12;97784.47;;;31.84;38.75
39157;BME280;24889;42.424;25.604;2022-08-07T12:42:40;97773.34;;;31.64;38.01
39157;BME280;24889;42.424;25.604;2022-08-07T12:45:08;97772.50;;;31.80;38.35
39157;BME280;24889;42.424;25.604;2022-08-07T12:58:37;97782.47;;;32.51;37.21
39157;BME280;24889;42.424;25.604;2022-08-07T13:01:07;97776.28;;;32.22;38.26
39157;BME280;24889;42.424;25.604;2022-08-07T13:16:01;97773.28;;;32.31;37.03
39157;BME280;24889;42.424;25.604;2022-08-07T13:18:31;97766.41;;;32.41;37.52
39157;BME280;24889;42.424;25.604;2022-08-07T13:21:06;97768.31;;;32.56;36.29
39157;BME280;24889;42.424;25.604;2022-08-07T13:29:00;97890.75;;;30.83;45.08
39157;BME280;24889;42.424;25.604;2022-08-07T13:34:22;97876.19;;;29.26;50.79
39157;BME280;24889;42.424;25.604;2022-08-07T13:36:52;97869.69;;;29.10;51.99
39157;BME280;24889;42.424;25.604;2022-08-07T13:39:30;97882.53;;;29.06;52.13
39157;BME280;24889;42.424;25.604;2022-08-07T13:41:57;97895.81;;;28.03;58.66
39157;BME280;24889;42.424;25.604;2022-08-07T13:44:24;97908.06;;;27.76;60.80
39157;BME280;24889;42.424;25.604;2022-08-07T13:46:52;97914.41;;;27.59;65.18
39157;BME280;24889;42.424;25.604;2022-08-07T13:49:20;97919.16;;;26.98;71.42
39157;BME280;24889;42.424;25.604;2022-08-07T13:51:46;97911.06;;;27.10;73.16
39157;BME280;24889;42.424;25.604;2022-08-07T13:54:13;97905.09;;;26.90;68.78
39157;BME280;24889;42.424;25.604;2022-08-07T13:56:40;97906.53;;;26.79;68.92
39157;BME280;24889;42.424;25.604;2022-08-07T13:59:19;97917.97;;;26.47;68.15
39157;BME280;24889;42.424;25.604;2022-08-07T14:01:53;97920.81;;;25.84;79.22
39157;BME280;24889;42.424;25.604;2022-08-07T14:04:19;97918.00;;;25.53;79.61
39157;BME280;24889;42.424;25.604;2022-08-07T14:06:48;97915.22;;;25.44;90.21
39157;BME280;24889;42.424;25.604;2022-08-07T14:09:15;97914.25;;;25.40;96.81
39157;BME280;24889;42.424;25.604;2022-08-07T14:11:43;97905.00;;;25.59;100.00
39157;BME280;24889;42.424;25.604;2022-08-07T14:14:10;97892.44;;;25.89;100.00
39157;BME280;24889;42.424;25.604;2022-08-07T14:16:37;97902.25;;;25.81;100.00
39157;BME280;24889;42.424;25.604;2022-08-07T14:19:04;97902.19;;;26.04;100.00
39157;BME280;24889;42.424;25.604;2022-08-07T14:21:39;97905.34;;;25.88;100.00
39157;BME280;24889;42.424;25.604;2022-08-07T14:24:20;97906.13;;;25.58;100.00
39157;BME280;24889;42.424;25.604;2022-08-07T14:29:14;97885.97;;;25.54;100.00
39157;BME280;24889;42.424;25.604;2022-08-07T14:31:41;97870.72;;;25.70;100.00
39157;BME280;24889;42.424;25.604;2022-08-07T14:34:07;97869.38;;;25.81;100.00
39157;BME280;24889;42.424;25.604;2022-08-07T14:36:33;97843.41;;;25.87;100.00
39157;BME280;24889;42.424;25.604;2022-08-07T14:39:02;97862.31;;;25.98;100.00
39157;BME280;24889;42.424;25.604;2022-08-07T14:41:28;97849.28;;;26.12;100.00
39157;BME280;24889;42.424;25.604;2022-08-07T14:43:56;97851.56;;;26.18;100.00
39157;BME280;24889;42.424;25.604;2022-08-07T14:46:22;97845.78;;;26.37;100.00
39157;BME280;24889;42.424;25.604;2022-08-07T14:48:49;97846.13;;;26.44;100.00
39157;BME280;24889;42.424;25.604;2022-08-07T14:51:18;97838.41;;;26.47;100.00
39157;BME280;24889;42.424;25.604;2022-08-07T14:53:44;97844.03;;;26.59;100.00
39157;BME280;24889;42.424;25.604;2022-08-07T14:56:11;97841.50;;;26.71;100.00
39157;BME280;24889;42.424;25.604;2022-08-07T14:58:38;97843.88;;;26.81;100.00
39157;BME280;24889;42.424;25.604;2022-08-07T15:01:04;97842.25;;;26.89;100.00
39157;BME280;24889;42.424;25.604;2022-08-07T15:03:30;97835.31;;;26.91;97.90
39157;BME280;24889;42.424;25.604;2022-08-07T15:05:56;97829.84;;;26.91;96.95
39157;BME280;24889;42.424;25.604;2022-08-07T15:08:25;97818.34;;;26.89;94.63
39157;BME280;24889;42.424;25.604;2022-08-07T15:11:10;97808.50;;;26.97;95.58
39157;BME280;24889;42.424;25.604;2022-08-07T15:16:34;97819.00;;;26.95;93.89
39157;BME280;24889;42.424;25.604;2022-08-07T15:19:01;97822.25;;;26.88;98.76